Time;durP1;ratioP1;P1;durP2;ratioP2;P2;SDS_P1;SDS_P2;PMS_P1;PMS_P2;Temp;Humidity;BMP_temperature;BMP_pressure;BME280_temperature;BME280_humidity;BME280_pressure;Samples;Min_cycle;Max_cycle;Signal;HPM_P1;HPM_P2
2022/04/17 00:00:12;;;;;;;8.52;4.68;;;;;;;2.59;53.94;102774.13;7392815;19;20035;-66
2022/04/17 00:02:41;;;;;;;4.72;4.03;;;;;;;2.54;54.15;102772.13;7393482;19;20018;-66
2022/04/17 00:05:11;;;;;;;4.00;3.55;;;;;;;2.50;54.37;102772.81;7393305;19;20018;-66
2022/04/17 00:07:39;;;;;;;4.43;3.97;;;;;;;2.43;54.72;102777.75;7393199;19;20114;-66
2022/04/17 00:10:09;;;;;;;4.78;4.00;;;;;;;2.39;54.74;102782.69;7394257;19;20035;-66
2022/04/17 00:12:39;;;;;;;4.95;4.47;;;;;;;2.33;54.85;102775.56;7392781;19;20043;-66
2022/04/17 00:15:18;;;;;;;8.88;4.68;;;;;;;2.30;54.83;102774.53;7394376;19;20014;-66
2022/04/17 00:17:46;;;;;;;6.03;4.53;;;;;;;2.19;55.09;102761.13;7394518;19;20029;-66
2022/04/17 00:20:16;;;;;;;6.72;4.65;;;;;;;2.19;55.05;102774.06;7393899;19;20014;-66
2022/04/17 00:22:44;;;;;;;5.68;4.93;;;;;;;2.17;55.52;102768.78;7392727;19;20043;-66
2022/04/17 00:25:14;;;;;;;7.97;4.75;;;;;;;2.12;55.55;102770.28;7394762;19;20015;-66
2022/04/17 00:27:42;;;;;;;9.05;5.13;;;;;;;2.10;55.96;102771.94;7394426;19;20019;-66
2022/04/17 00:30:13;;;;;;;6.88;5.20;;;;;;;2.06;56.30;102776.09;7392805;19;20010;-66
2022/04/17 00:32:42;;;;;;;5.53;4.28;;;;;;;2.03;56.27;102770.75;7399438;19;20023;-66
2022/04/17 00:35:12;;;;;;;6.00;3.90;;;;;;;2.00;56.42;102769.72;7401795;19;20014;-66
2022/04/17 00:37:46;;;;;;;6.53;4.40;;;;;;;1.96;56.57;102776.47;7400786;19;20496;-66
2022/04/17 00:40:14;;;;;;;6.18;4.32;;;;;;;1.93;56.93;102764.28;7400616;19;20022;-66
2022/04/17 00:42:43;;;;;;;4.32;3.65;;;;;;;1.88;56.92;102770.91;7401580;19;20022;-66
2022/04/17 00:45:14;;;;;;;4.78;3.70;;;;;;;1.86;57.25;102771.66;7397796;19;20445;-66
2022/04/17 00:47:42;;;;;;;6.05;4.78;;;;;;;1.79;57.49;102771.41;7399025;19;20014;-66
2022/04/17 00:50:12;;;;;;;8.40;5.05;;;;;;;1.75;57.76;102776.34;7398266;19;20026;-67
2022/04/17 00:52:40;;;;;;;7.43;5.13;;;;;;;1.70;57.79;102770.06;7398436;19;20018;-66
2022/04/17 00:55:11;;;;;;;5.93;4.88;;;;;;;1.67;57.99;102765.63;7398402;19;20026;-65
2022/04/17 00:57:39;;;;;;;6.10;4.05;;;;;;;1.65;57.97;102766.38;7400565;19;20352;-64
2022/04/17 01:00:09;;;;;;;7.65;4.30;;;;;;;1.62;57.88;102764.53;7398385;19;20035;-65
2022/04/17 01:02:40;;;;;;;4.47;3.70;;;;;;;1.57;58.10;102761.72;7398094;19;20018;-65
2022/04/17 01:05:09;;;;;;;8.60;5.50;;;;;;;1.55;58.28;102757.28;7401321;19;20032;-65
2022/04/17 01:07:37;;;;;;;9.10;6.07;;;;;;;1.51;58.31;102752.78;7400782;19;20018;-65
2022/04/17 01:10:08;;;;;;;9.27;6.80;;;;;;;1.43;58.74;102750.72;7397960;19;20046;-65
2022/04/17 01:12:42;;;;;;;9.13;7.20;;;;;;;1.46;59.09;102758.59;7399015;19;20045;-65
2022/04/17 01:15:12;;;;;;;10.80;7.50;;;;;;;1.45;59.25;102753.38;7400509;19;20022;-65
2022/04/17 01:17:43;;;;;;;8.88;5.75;;;;;;;1.43;59.23;102748.13;7400624;19;20026;-65
2022/04/17 01:20:12;;;;;;;6.75;5.50;;;;;;;1.41;59.64;102746.28;7399066;19;20395;-65
2022/04/17 01:22:49;;;;;;;6.88;5.10;;;;;;;1.40;59.81;102744.50;7397637;19;20022;-65
2022/04/17 01:27:58;;;;;;;5.28;3.95;;;;;;;1.37;59.97;102745.22;7400186;19;20482;-66
2022/04/17 01:30:26;;;;;;;5.80;3.45;;;;;;;1.34;59.91;102745.09;7398868;19;20018;-65
2022/04/17 01:32:54;;;;;;;5.78;4.03;;;;;;;1.31;60.27;102742.34;7399920;19;20019;-66
2022/04/17 01:35:22;;;;;;;8.80;4.93;;;;;;;1.28;60.14;102752.56;7399723;19;20018;-65
2022/04/17 01:37:53;;;;;;;8.23;6.82;;;;;;;1.23;60.14;102754.03;7399893;19;20478;-66
2022/04/17 01:40:21;;;;;;;8.63;7.32;;;;;;;1.18;60.13;102753.81;7397461;19;20022;-66
2022/04/17 01:42:49;;;;;;;9.27;7.65;;;;;;;1.13;60.46;102761.31;7398502;19;20028;-65
2022/04/17 01:45:17;;;;;;;9.95;6.95;;;;;;;1.10;60.52;102766.34;7396822;19;20015;-66
2022/04/17 01:47:46;;;;;;;9.48;6.65;;;;;;;1.06;60.87;102753.19;7400220;19;20474;-65
2022/04/17 01:50:14;;;;;;;12.18;8.07;;;;;;;1.04;61.04;102752.25;7398608;19;20018;-65
2022/04/17 01:52:42;;;;;;;9.60;6.05;;;;;;;1.00;60.94;102747.72;7399207;19;20035;-65
2022/04/17 01:55:13;;;;;;;7.28;5.68;;;;;;;0.97;61.11;102749.34;7399161;19;20023;-65
2022/04/17 01:57:41;;;;;;;7.35;5.55;;;;;;;0.96;61.28;102754.41;7399578;19;20031;-65
2022/04/17 02:00:10;;;;;;;6.45;4.78;;;;;;;0.91;61.40;102753.31;7396494;19;20415;-65
2022/04/17 02:02:38;;;;;;;7.18;4.78;;;;;;;0.90;61.22;102751.56;7396616;19;20035;-65
2022/04/17 02:05:08;;;;;;;5.32;4.82;;;;;;;0.86;61.40;102747.00;7398810;19;20019;-64
2022/04/17 02:07:36;;;;;;;8.40;5.68;;;;;;;0.83;61.52;102742.59;7398796;19;20018;-66
2022/04/17 02:10:05;;;;;;;7.35;5.10;;;;;;;0.79;61.78;102744.13;7397720;19;20023;-65
2022/04/17 02:12:36;;;;;;;6.85;5.55;;;;;;;0.76;61.88;102738.81;7396305;19;20010;-65
2022/04/17 02:15:04;;;;;;;8.38;5.63;;;;;;;0.72;62.10;102747.22;7398998;19;20018;-65
2022/04/17 02:17:37;;;;;;;8.48;5.00;;;;;;;0.69;62.70;102746.19;7398118;19;20465;-65
2022/04/17 02:20:07;;;;;;;9.90;5.82;;;;;;;0.64;62.60;102739.09;7396553;19;20035;-65
2022/04/17 02:22:35;;;;;;;8.85;5.28;;;;;;;0.60;62.77;102741.41;7398708;19;20026;-65
2022/04/17 02:25:04;;;;;;;10.82;6.00;;;;;;;0.57;62.88;102736.06;7396102;19;20039;-65
2022/04/17 02:27:32;;;;;;;12.38;6.70;;;;;;;0.55;62.89;102735.13;7398124;19;20031;-65
2022/04/17 02:30:02;;;;;;;11.05;5.90;;;;;;;0.53;63.08;102737.66;7397486;19;20019;-64
2022/04/17 02:32:30;;;;;;;8.93;5.55;;;;;;;0.52;63.02;102732.38;7396151;19;20031;-66
2022/04/17 02:34:59;;;;;;;9.27;5.20;;;;;;;0.52;63.33;102729.78;7395727;19;20019;-65
2022/04/17 02:37:28;;;;;;;7.32;4.75;;;;;;;0.50;63.52;102729.72;7397748;19;20428;-65
2022/04/17 02:39:56;;;;;;;6.50;4.30;;;;;;;0.50;63.43;102732.31;7395282;19;20070;-65
2022/04/17 02:42:24;;;;;;;7.57;4.60;;;;;;;0.45;63.46;102721.72;7397535;19;20022;-66
2022/04/17 02:45:24;;;;;;;4.25;3.85;;;;;;;0.40;63.77;102723.19;7397381;19;20014;-66
2022/04/17 02:47:58;;;;;;;7.07;4.15;;;;;;;0.38;63.98;102727.41;7394890;19;20381;-65
2022/04/17 02:50:26;;;;;;;5.68;4.88;;;;;;;0.34;63.72;102732.31;7396470;19;20035;-65
2022/04/17 02:52:56;;;;;;;4.95;4.32;;;;;;;0.26;63.94;102722.47;7394973;19;20028;-66
2022/04/17 02:55:25;;;;;;;6.45;4.65;;;;;;;0.25;63.90;102725.88;7395593;19;20019;-66
2022/04/17 02:57:55;;;;;;;7.05;4.70;;;;;;;0.20;64.09;102729.88;7397042;19;20018;-66
2022/04/17 03:00:26;;;;;;;5.38;4.47;;;;;;;0.15;64.07;102728.75;7394892;19;20344;-66
2022/04/17 03:05:39;;;;;;;6.10;4.40;;;;;;;0.07;64.21;102730.06;7396916;19;20015;-66
2022/04/17 03:08:09;;;;;;;4.25;3.85;;;;;;;0.03;64.13;102736.75;7397278;19;20044;-66
2022/04/17 03:10:38;;;;;;;7.68;4.43;;;;;;;-0.03;64.42;102732.13;7395374;19;20014;-66
2022/04/17 03:13:10;;;;;;;4.85;3.83;;;;;;;-0.12;64.58;102730.75;7394814;19;20022;-66
2022/04/17 03:15:41;;;;;;;6.28;4.20;;;;;;;-0.17;64.75;102746.84;7396514;19;20022;-66
2022/04/17 03:18:11;;;;;;;5.18;4.40;;;;;;;-0.23;64.67;102740.50;7396723;19;20014;-66
2022/04/17 03:20:39;;;;;;;5.78;4.07;;;;;;;-0.31;64.82;102737.50;7394388;19;20022;-66
2022/04/17 03:23:08;;;;;;;5.03;4.53;;;;;;;-0.36;64.80;102732.06;7395867;19;20482;-66
2022/04/17 03:25:36;;;;;;;5.47;4.90;;;;;;;-0.46;65.09;102726.34;7396219;19;20027;-65
2022/04/17 03:28:04;;;;;;;4.75;3.80;;;;;;;-0.45;64.90;102736.72;7396069;19;20026;-66
2022/04/17 03:30:32;;;;;;;6.15;4.05;;;;;;;-0.51;65.01;102732.09;7395215;19;20035;-66
2022/04/17 03:33:03;;;;;;;6.35;4.40;;;;;;;-0.54;65.08;102731.94;7396144;19;20011;-65
2022/04/17 03:35:32;;;;;;;5.70;4.40;;;;;;;-0.58;65.16;102729.09;7396157;19;20035;-66
2022/04/17 03:38:00;;;;;;;7.43;4.22;;;;;;;-0.63;65.19;102730.53;7395863;19;20363;-66
2022/04/17 03:40:29;;;;;;;5.72;4.45;;;;;;;-0.69;65.51;102728.50;7394115;19;20015;-65
2022/04/17 03:42:58;;;;;;;5.82;4.82;;;;;;;-0.76;65.56;102726.38;7395671;19;20023;-66
2022/04/17 03:45:26;;;;;;;8.00;5.25;;;;;;;-0.81;65.49;102720.94;7393460;19;20035;-66
2022/04/17 03:47:54;;;;;;;12.00;8.55;;;;;;;-0.87;65.67;102711.19;7396004;19;20022;-66
2022/04/17 03:50:25;;;;;;;8.15;6.07;;;;;;;-0.91;65.56;102709.25;7394722;19;20022;-66
2022/04/17 03:52:53;;;;;;;7.65;5.70;;;;;;;-0.98;65.82;102702.84;7394138;19;20022;-66
2022/04/17 03:55:21;;;;;;;8.68;5.32;;;;;;;-1.01;65.61;102699.19;7393546;19;20023;-66
2022/04/17 03:57:49;;;;;;;13.30;7.18;;;;;;;-1.05;65.84;102702.41;7393560;19;20040;-66
2022/04/17 04:00:18;;;;;;;10.63;5.88;;;;;;;-1.11;65.59;102687.50;7393237;19;20437;-66
2022/04/17 04:02:51;;;;;;;13.32;7.65;;;;;;;-1.14;66.49;102684.72;7394174;19;20461;-65
2022/04/17 04:05:21;;;;;;;43.58;18.65;;;;;;;-1.17;66.18;102684.56;7393754;19;20529;-65
2022/04/17 04:07:51;;;;;;;45.00;21.45;;;;;;;-1.21;66.09;102686.06;7392764;19;20018;-66
2022/04/17 04:10:19;;;;;;;26.05;11.93;;;;;;;-1.23;66.45;102687.66;7393940;19;20031;-66
2022/04/17 04:12:47;;;;;;;14.65;7.70;;;;;;;-1.25;66.56;102678.06;7393948;19;20022;-66
2022/04/17 04:15:16;;;;;;;32.72;14.70;;;;;;;-1.26;66.56;102677.19;7394784;19;20022;-65
2022/04/17 04:17:44;;;;;;;25.35;16.98;;;;;;;-1.27;66.43;102674.53;7392616;19;20515;-65
2022/04/17 04:20:13;;;;;;;17.88;13.27;;;;;;;-1.28;66.75;102665.03;7392808;19;20411;-64
2022/04/17 04:22:41;;;;;;;11.70;8.23;;;;;;;-1.28;66.68;102665.91;7392765;19;20015;-65
2022/04/17 04:25:12;;;;;;;11.32;6.32;;;;;;;-1.26;66.49;102673.72;7394501;19;20375;-65
2022/04/17 04:30:21;;;;;;;7.75;6.35;;;;;;;-1.26;66.60;102671.13;7394130;19;20011;-66
2022/04/17 04:32:56;;;;;;;7.57;5.45;;;;;;;-1.26;66.72;102665.97;7394999;19;20018;-66
2022/04/17 04:35:26;;;;;;;7.43;5.00;;;;;;;-1.23;66.92;102673.91;7394408;19;20019;-67
2022/04/17 04:37:54;;;;;;;8.55;6.85;;;;;;;-1.22;66.86;102673.13;7394490;19;20056;-67
2022/04/17 04:40:25;;;;;;;7.55;5.70;;;;;;;-1.22;66.75;102663.69;7393123;19;20023;-66
2022/04/17 04:42:59;;;;;;;7.70;5.32;;;;;;;-1.20;67.13;102667.25;7393356;19;20475;-67
2022/04/17 04:48:09;;;;;;;7.25;5.40;;;;;;;-1.17;67.19;102671.69;7394077;19;20047;-70
2022/04/17 04:50:35;;;;;;;6.03;4.90;;;;;;;-1.16;67.20;102671.78;7392859;19;20029;-66
2022/04/17 04:53:03;;;;;;;5.93;4.70;;;;;;;-1.17;67.26;102658.81;7391320;19;20479;-66
2022/04/17 04:55:34;;;;;;;6.72;4.55;;;;;;;-1.11;67.23;102665.97;7393627;19;20019;-66
2022/04/17 04:58:02;;;;;;;5.97;5.40;;;;;;;-1.09;67.23;102667.84;7393959;19;20014;-66
2022/04/17 05:00:30;;;;;;;6.97;5.72;;;;;;;-1.10;67.45;102657.47;7391643;19;20019;-65
2022/04/17 05:02:59;;;;;;;7.72;5.25;;;;;;;-1.03;67.28;102669.91;7391430;19;20352;-66
2022/04/17 05:05:27;;;;;;;9.80;7.70;;;;;;;-0.99;67.35;102669.25;7393294;19;20348;-66
2022/04/17 05:07:57;;;;;;;10.07;8.93;;;;;;;-0.99;67.39;102669.25;7393174;19;20036;-66
2022/04/17 05:10:25;;;;;;;11.45;9.30;;;;;;;-0.94;67.71;102675.56;7392250;19;20048;-66
2022/04/17 05:12:56;;;;;;;12.93;10.57;;;;;;;-0.90;67.87;102672.34;7390757;19;20022;-65
2022/04/17 05:15:25;;;;;;;13.82;11.50;;;;;;;-0.85;67.79;102675.19;7392252;19;20034;-66
2022/04/17 05:17:53;;;;;;;17.63;14.35;;;;;;;-0.81;67.70;102674.56;7398522;19;20362;-66
2022/04/17 05:20:21;;;;;;;22.00;15.57;;;;;;;-0.74;67.82;102678.38;7397927;19;20011;-65
2022/04/17 05:22:56;;;;;;;14.30;9.00;;;;;;;-0.67;67.86;102677.91;7397584;19;20014;-66
2022/04/17 05:25:24;;;;;;;9.98;7.70;;;;;;;-0.61;68.07;102680.81;7400674;19;20030;-66
2022/04/17 05:27:55;;;;;;;7.85;6.28;;;;;;;-0.53;68.80;102678.66;7397591;19;20018;-66
2022/04/17 05:30:23;;;;;;;6.93;5.88;;;;;;;-0.50;68.22;102677.16;7399248;19;20035;-67
2022/04/17 05:32:51;;;;;;;9.80;6.20;;;;;;;-0.42;68.27;102679.28;7399737;19;20039;-65
2022/04/17 05:35:20;;;;;;;8.18;6.18;;;;;;;-0.36;68.28;102689.91;7397221;19;20022;-66
2022/04/17 05:37:48;;;;;;;7.35;6.50;;;;;;;-0.33;67.95;102690.06;7397180;19;20019;-65
2022/04/17 05:40:16;;;;;;;12.43;8.27;;;;;;;-0.25;67.92;102687.91;7397784;19;20022;-64
2022/04/17 05:42:44;;;;;;;9.65;6.72;;;;;;;-0.20;68.25;102682.22;7396466;19;20478;-64
2022/04/17 05:45:15;;;;;;;11.25;7.55;;;;;;;-0.13;68.00;102685.13;7396763;19;20031;-66
2022/04/17 05:47:43;;;;;;;10.20;7.53;;;;;;;-0.08;67.89;102683.66;7396718;19;20015;-67
2022/04/17 05:50:12;;;;;;;12.52;7.97;;;;;;;-0.03;68.02;102680.50;7398717;19;20035;-67
2022/04/17 05:52:41;;;;;;;10.15;7.53;;;;;;;0.04;67.78;102681.75;7398954;19;20040;-66
2022/04/17 05:55:11;;;;;;;9.63;7.25;;;;;;;0.10;67.93;102684.66;7398896;19;20021;-65
2022/04/17 05:57:39;;;;;;;10.45;7.35;;;;;;;0.19;67.70;102688.50;7398548;19;20014;-65
2022/04/17 06:00:09;;;;;;;10.20;7.22;;;;;;;0.25;67.68;102683.66;7397126;19;20014;-67
2022/04/17 06:02:39;;;;;;;9.85;7.90;;;;;;;0.34;67.76;102683.25;7397955;19;20019;-67
2022/04/17 06:05:09;;;;;;;9.10;7.30;;;;;;;0.40;67.60;102686.16;7398697;19;20015;-65
2022/04/17 06:07:37;;;;;;;9.63;6.78;;;;;;;0.51;67.54;102687.59;7395705;19;20579;-66
2022/04/17 06:10:06;;;;;;;8.50;6.00;;;;;;;0.58;67.23;102675.88;7397210;19;20023;-65
2022/04/17 06:12:35;;;;;;;9.20;7.20;;;;;;;0.68;67.06;102675.50;7397206;19;20019;-65
2022/04/17 06:15:03;;;;;;;7.82;5.97;;;;;;;0.77;66.88;102678.56;7398138;19;20014;-65
2022/04/17 06:17:40;;;;;;;7.05;5.90;;;;;;;0.89;66.85;102677.41;7395937;19;20026;-66
2022/04/17 06:20:11;;;;;;;9.60;6.30;;;;;;;0.99;66.39;102677.03;7396898;19;20510;-65
2022/04/17 06:22:39;;;;;;;8.45;5.40;;;;;;;1.09;66.17;102671.50;7398524;19;20035;-65
2022/04/17 06:25:11;;;;;;;10.38;6.03;;;;;;;1.20;65.96;102674.63;7395522;19;20031;-65
2022/04/17 06:27:40;;;;;;;8.10;6.93;;;;;;;1.30;65.82;102671.66;7398252;19;20022;-65
2022/04/17 06:30:11;;;;;;;7.70;5.50;;;;;;;1.42;65.44;102663.56;7395622;19;20039;-65
2022/04/17 06:32:43;;;;;;;6.45;5.57;;;;;;;1.54;65.20;102668.44;7398249;19;20027;-65
2022/04/17 06:35:12;;;;;;;7.00;5.35;;;;;;;1.67;65.09;102671.56;7397973;19;20035;-65
2022/04/17 06:37:56;;;;;;;6.95;4.93;;;;;;;1.79;64.69;102674.72;7395525;19;20018;-65
2022/04/17 06:40:26;;;;;;;6.20;5.07;;;;;;;1.92;64.44;102682.25;7395169;19;20022;-65
2022/04/17 06:42:56;;;;;;;6.88;4.47;;;;;;;2.03;64.18;102674.94;7397411;19;20027;-66
2022/04/17 06:45:25;;;;;;;5.15;4.57;;;;;;;2.16;63.48;102678.09;7397699;19;20032;-65
2022/04/17 06:47:56;;;;;;;7.60;5.20;;;;;;;2.28;63.17;102686.41;7395218;19;20027;-65
2022/04/17 06:50:26;;;;;;;6.57;4.82;;;;;;;2.40;63.30;102686.03;7395183;19;20018;-66
2022/04/17 06:52:54;;;;;;;8.18;4.57;;;;;;;2.52;62.71;102688.28;7395184;19;20018;-65
2022/04/17 06:55:22;;;;;;;7.00;4.22;;;;;;;2.65;62.23;102689.69;7394698;19;20021;-65
2022/04/17 06:57:51;;;;;;;7.45;4.93;;;;;;;2.76;62.01;102681.53;7396757;19;20039;-67
2022/04/17 07:00:22;;;;;;;6.43;4.10;;;;;;;2.89;61.70;102684.63;7395671;19;20018;-66
2022/04/17 07:02:51;;;;;;;6.15;3.92;;;;;;;3.02;61.38;102676.53;7396239;19;20482;-65
2022/04/17 07:05:22;;;;;;;5.18;3.90;;;;;;;3.14;61.01;102686.50;7394805;19;20018;-64
2022/04/17 07:07:59;;;;;;;7.20;4.20;;;;;;;3.28;60.61;102683.59;7394806;19;20066;-65
2022/04/17 07:10:27;;;;;;;5.22;3.58;;;;;;;3.40;60.36;102674.56;7395320;19;20486;-65
2022/04/17 07:12:55;;;;;;;5.35;3.90;;;;;;;3.51;59.92;102669.78;7394669;19;20018;-65
2022/04/17 07:15:25;;;;;;;4.35;3.25;;;;;;;3.66;59.54;102673.81;7393677;19;20377;-66
2022/04/17 07:17:54;;;;;;;6.93;3.33;;;;;;;3.77;58.73;102671.59;7394287;19;20018;-66
2022/04/17 07:20:25;;;;;;;4.40;2.92;;;;;;;3.89;58.20;102672.97;7395360;19;20026;-66
2022/04/17 07:22:54;;;;;;;3.33;2.90;;;;;;;4.01;57.80;102680.31;7396128;19;20029;-66
2022/04/17 07:25:22;;;;;;;6.10;3.70;;;;;;;4.10;57.35;102668.50;7395846;19;20025;-66
2022/04/17 07:27:53;;;;;;;5.70;3.55;;;;;;;4.25;56.88;102666.44;7396000;19;20091;-66
2022/04/17 07:30:23;;;;;;;6.72;4.25;;;;;;;4.36;56.42;102666.78;7395463;19;20022;-65
2022/04/17 07:32:53;;;;;;;6.97;5.43;;;;;;;4.45;55.96;102666.22;7393674;19;20474;-67
2022/04/17 07:35:25;;;;;;;8.75;5.00;;;;;;;4.55;55.81;102671.81;7393961;19;20014;-68
2022/04/17 07:37:54;;;;;;;7.03;5.10;;;;;;;4.65;55.32;102662.63;7394249;19;20023;-68
2022/04/17 07:40:25;;;;;;;20.83;12.32;;;;;;;4.75;55.46;102660.31;7392153;19;20078;-66
2022/04/17 07:42:54;;;;;;;7.15;5.28;;;;;;;4.85;54.91;102647.69;7395053;19;20011;-69
2022/04/17 07:45:23;;;;;;;10.80;6.35;;;;;;;4.98;54.54;102648.94;7393262;19;20482;-67
2022/04/17 07:47:52;;;;;;;6.57;4.88;;;;;;;5.09;54.04;102649.28;7393734;19;20017;-65
2022/04/17 07:50:25;;;;;;;8.40;5.40;;;;;;;5.22;53.57;102640.16;7394814;19;20025;-66
2022/04/17 07:52:54;;;;;;;7.43;4.65;;;;;;;5.34;53.02;102643.09;7395345;19;20024;-65
2022/04/17 07:55:23;;;;;;;4.68;3.63;;;;;;;5.45;52.21;102640.84;7394983;19;20024;-66
2022/04/17 07:57:56;;;;;;;4.80;3.67;;;;;;;5.60;51.48;102639.50;7393524;19;20039;-66
2022/04/17 08:00:27;;;;;;;4.65;3.58;;;;;;;5.73;50.79;102636.44;7392209;19;20015;-66
2022/04/17 08:03:06;;;;;;;4.90;3.38;;;;;;;5.87;50.16;102642.03;7394652;19;20018;-66
2022/04/17 08:05:37;;;;;;;6.78;3.90;;;;;;;5.98;49.55;102638.06;7394744;19;20015;-66
2022/04/17 08:08:12;;;;;;;6.80;3.65;;;;;;;6.11;49.17;102630.56;7392263;19;20377;-65
2022/04/17 08:10:41;;;;;;;6.57;3.65;;;;;;;6.22;48.89;102630.84;7392712;19;20401;-65
2022/04/17 08:13:09;;;;;;;4.70;3.13;;;;;;;6.35;48.61;102623.38;7394674;19;20018;-65
2022/04/17 08:15:38;;;;;;;4.82;3.17;;;;;;;6.48;47.99;102622.00;7394236;19;20022;-65
2022/04/17 08:18:06;;;;;;;3.70;2.70;;;;;;;6.61;47.68;102620.56;7394058;19;20389;-66
2022/04/17 08:20:37;;;;;;;4.53;3.03;;;;;;;6.74;47.09;102611.31;7392559;19;20014;-65
2022/04/17 08:23:06;;;;;;;4.57;3.03;;;;;;;6.84;46.83;102615.03;7392642;19;20040;-65
2022/04/17 08:25:35;;;;;;;4.75;2.83;;;;;;;6.96;46.71;102612.72;7392885;19;20432;-65
2022/04/17 08:28:04;;;;;;;3.92;2.30;;;;;;;7.06;46.60;102611.19;7392093;19;20018;-65
2022/04/17 08:30:33;;;;;;;2.63;2.13;;;;;;;7.21;46.44;102609.78;7391954;19;20022;-65
2022/04/17 08:33:10;;;;;;;2.20;1.75;;;;;;;7.33;45.95;102603.09;7391741;19;20018;-66
2022/04/17 08:35:40;;;;;;;1.88;1.40;;;;;;;7.45;45.69;102592.00;7394127;19;20019;-66
2022/04/17 08:38:09;;;;;;;3.28;1.23;;;;;;;7.59;45.82;102594.91;7391465;19;20475;-66
2022/04/17 08:40:41;;;;;;;2.90;1.77;;;;;;;7.72;45.58;102584.72;7391762;19;20047;-66
2022/04/17 08:43:10;;;;;;;1.85;1.52;;;;;;;7.85;45.48;102586.72;7391872;19;20030;-66
2022/04/17 08:45:38;;;;;;;4.20;2.28;;;;;;;7.98;45.13;102586.09;7393350;19;20031;-66
2022/04/17 08:48:07;;;;;;;2.90;1.98;;;;;;;8.10;45.00;102584.53;7391131;19;20056;-65
2022/04/17 08:50:37;;;;;;;1.60;1.40;;;;;;;8.21;44.73;102580.38;7390646;19;20055;-65
2022/04/17 08:53:08;;;;;;;2.00;1.52;;;;;;;8.32;44.45;102571.00;7400049;19;20040;-64
2022/04/17 08:55:37;;;;;;;2.83;1.67;;;;;;;8.43;44.60;102575.56;7397875;19;20507;-65
2022/04/17 08:58:05;;;;;;;3.85;1.80;;;;;;;8.55;44.21;102570.53;7400340;19;20360;-65
2022/04/17 09:00:33;;;;;;;2.10;1.70;;;;;;;8.67;44.00;102571.56;7399260;19;20495;-65
2022/04/17 09:03:01;;;;;;;2.28;1.65;;;;;;;8.77;43.92;102568.25;7400336;19;20031;-65
2022/04/17 09:05:32;;;;;;;3.35;1.40;;;;;;;8.87;43.90;102572.78;7399928;19;20392;-65
2022/04/17 09:08:17;;;;;;;2.25;1.20;;;;;;;8.96;43.54;102561.56;7400101;19;20032;-65
2022/04/17 09:10:56;;;;;;;2.38;1.88;;;;;;;9.04;42.70;102559.91;7397632;19;20356;-66
2022/04/17 09:13:32;;;;;;;2.67;1.58;;;;;;;9.12;43.00;102549.53;7400023;19;20010;-65
2022/04/17 09:16:01;;;;;;;3.10;1.70;;;;;;;9.19;43.19;102550.53;7399129;19;20018;-66
2022/04/17 09:18:31;;;;;;;1.85;1.33;;;;;;;9.25;42.86;102543.63;7395529;19;20397;-66
2022/04/17 09:21:01;;;;;;;3.88;1.88;;;;;;;9.34;42.80;102548.09;7397390;19;20022;-67
2022/04/17 09:23:41;;;;;;;3.05;1.52;;;;;;;9.39;41.95;102540.28;7400422;19;20014;-66
2022/04/17 09:26:11;;;;;;;5.72;2.70;;;;;;;9.45;42.61;102542.97;7400531;19;20022;-66
2022/04/17 09:28:40;;;;;;;3.50;2.33;;;;;;;9.51;42.98;102539.56;7399941;19;20029;-66
2022/04/17 09:31:12;;;;;;;4.28;2.28;;;;;;;9.57;42.90;102544.88;7397393;19;20490;-66
2022/04/17 09:33:42;;;;;;;4.53;2.55;;;;;;;9.62;42.77;102546.66;7399215;19;20039;-65
2022/04/17 09:36:12;;;;;;;3.25;2.13;;;;;;;9.68;42.79;102531.88;7396520;19;20015;-65
2022/04/17 09:38:47;;;;;;;3.20;2.00;;;;;;;9.69;41.90;102531.91;7396357;19;20018;-65
2022/04/17 09:41:17;;;;;;;3.70;2.28;;;;;;;9.74;42.50;102526.69;7397348;19;20097;-66
2022/04/17 09:43:46;;;;;;;3.97;2.38;;;;;;;9.77;42.22;102521.50;7397117;19;20014;-65
2022/04/17 09:46:15;;;;;;;4.28;2.60;;;;;;;9.80;42.41;102518.88;7398287;19;20018;-65
2022/04/17 09:48:44;;;;;;;3.40;2.30;;;;;;;9.86;42.41;102518.94;7398842;19;20559;-65
2022/04/17 09:51:23;;;;;;;4.22;2.50;;;;;;;9.90;41.94;102512.00;7397077;19;20078;-65
2022/04/17 09:54:05;;;;;;;4.30;2.88;;;;;;;9.94;41.38;102505.91;7399021;19;20029;-65
2022/04/17 09:56:36;;;;;;;4.35;2.85;;;;;;;9.97;42.16;102505.06;7398414;19;20394;-66
2022/04/17 09:59:19;;;;;;;5.32;2.80;;;;;;;10.01;42.09;102501.59;7397192;19;20547;-66
2022/04/17 10:01:49;;;;;;;3.85;2.58;;;;;;;10.06;42.11;102492.91;7397049;19;20055;-69
2022/04/17 10:04:20;;;;;;;5.20;3.25;;;;;;;10.09;42.17;102489.44;7398997;19;20019;-65
2022/04/17 10:06:50;;;;;;;4.65;2.85;;;;;;;10.15;42.08;102486.88;7399023;19;20082;-65
2022/04/17 10:09:21;;;;;;;4.32;2.63;;;;;;;10.23;42.03;102479.91;7398154;19;20479;-65
2022/04/17 10:11:51;;;;;;;4.05;2.38;;;;;;;10.27;42.14;102476.47;7396328;19;20022;-65
2022/04/17 10:14:19;;;;;;;4.38;2.53;;;;;;;10.31;41.91;102472.09;7395694;19;20014;-65
2022/04/17 10:16:48;;;;;;;3.42;2.20;;;;;;;10.35;41.79;102468.66;7396766;19;20337;-65
2022/04/17 10:19:19;;;;;;;3.15;2.20;;;;;;;10.37;40.88;102476.56;7395997;19;20056;-67
2022/04/17 10:21:48;;;;;;;3.60;1.92;;;;;;;10.37;41.17;102474.81;7395234;19;20519;-65
2022/04/17 10:24:21;;;;;;;4.05;2.22;;;;;;;10.38;41.36;102470.44;7397474;19;20018;-68
2022/04/17 10:26:50;;;;;;;3.58;2.00;;;;;;;10.41;41.08;102463.47;7398178;19;20021;-66
2022/04/17 10:29:25;;;;;;;4.15;2.22;;;;;;;10.45;40.99;102458.25;7397851;19;20035;-66
2022/04/17 10:32:18;;;;;;;4.40;1.90;;;;;;;10.49;40.31;102458.28;7395828;19;20014;-66
2022/04/17 10:35:10;;;;;;;3.42;2.05;;;;;;;10.55;40.20;102450.44;7398151;19;20018;-65
2022/04/17 10:38:07;;;;;;;3.25;1.88;;;;;;;10.61;39.66;102448.72;7398117;19;20014;-65
2022/04/17 10:40:38;;;;;;;5.78;3.17;;;;;;;10.65;40.47;102446.09;7396006;19;20018;-67
2022/04/17 10:43:08;;;;;;;3.13;2.38;;;;;;;10.73;40.37;102440.91;7395091;19;20035;-65
2022/04/17 10:46:08;;;;;;;3.25;1.95;;;;;;;10.77;39.40;102432.19;7394627;19;20478;-65
2022/04/17 10:48:45;;;;;;;2.65;1.90;;;;;;;10.81;40.44;102433.94;7397423;19;20018;-65
2022/04/17 10:51:22;;;;;;;3.42;1.83;;;;;;;10.88;40.31;102432.19;7395287;19;20018;-65
2022/04/17 10:54:03;;;;;;;3.58;2.45;;;;;;;10.98;40.09;102430.50;7397396;19;20018;-65
2022/04/17 10:56:35;;;;;;;3.75;2.40;;;;;;;11.05;40.00;102425.28;7397274;19;20022;-64
2022/04/17 10:59:06;;;;;;;3.97;2.35;;;;;;;11.14;40.02;102419.16;7396793;19;20410;-66
2022/04/17 11:01:56;;;;;;;4.15;2.17;;;;;;;11.21;37.88;102431.44;7394239;19;20509;-65
2022/04/17 11:04:26;;;;;;;2.63;1.60;;;;;;;11.25;39.25;102425.31;7394268;19;20345;-65
2022/04/17 11:06:56;;;;;;;3.38;2.22;;;;;;;11.31;39.03;102413.97;7396572;19;20034;-66
2022/04/17 11:09:26;;;;;;;3.22;2.10;;;;;;;11.41;39.39;102412.22;7395216;19;20373;-65
2022/04/17 11:12:07;;;;;;;3.75;2.45;;;;;;;11.53;39.13;102422.75;7393714;19;20428;-66
2022/04/17 11:14:35;;;;;;;4.32;2.55;;;;;;;11.66;38.50;102414.88;7393296;19;20503;-66
2022/04/17 11:17:08;;;;;;;4.47;2.50;;;;;;;11.80;38.98;102421.00;7395555;19;20035;-65
2022/04/17 11:19:37;;;;;;;2.28;1.60;;;;;;;11.99;38.51;102415.78;7395494;19;20015;-65
2022/04/17 11:22:08;;;;;;;3.10;1.92;;;;;;;12.19;38.29;102408.72;7395319;19;20050;-66
2022/04/17 11:25:05;;;;;;;4.57;2.47;;;;;;;12.42;36.96;102404.28;7396528;19;20025;-65
2022/04/17 11:27:41;;;;;;;3.78;2.25;;;;;;;12.55;35.96;102420.06;7394619;19;20018;-66
2022/04/17 11:30:11;;;;;;;2.78;2.03;;;;;;;12.65;36.93;102402.47;7394602;19;20015;-65
2022/04/17 11:32:51;;;;;;;3.25;1.77;;;;;;;12.68;35.46;102396.31;7394430;19;20045;-65
2022/04/17 11:35:22;;;;;;;3.83;2.17;;;;;;;12.77;36.48;102387.50;7396206;19;20474;-64
2022/04/17 11:38:00;;;;;;;2.55;1.70;;;;;;;12.86;35.49;102388.34;7395437;19;20074;-65
2022/04/17 11:40:35;;;;;;;3.85;2.42;;;;;;;12.91;35.10;102387.44;7393092;19;20015;-65
2022/04/17 11:43:12;;;;;;;5.80;2.40;;;;;;;12.90;35.38;102394.44;7393713;19;20018;-65
2022/04/17 11:45:42;;;;;;;3.45;2.28;;;;;;;12.92;36.11;102379.50;7393877;19;20019;-65
2022/04/17 11:48:11;;;;;;;4.25;2.15;;;;;;;12.96;36.16;102377.75;7393614;19;20014;-65
2022/04/17 11:50:41;;;;;;;3.35;2.28;;;;;;;12.97;36.20;102363.69;7394516;19;20040;-66
2022/04/17 11:53:13;;;;;;;4.78;2.13;;;;;;;13.01;35.78;102357.50;7395354;19;20035;-64
2022/04/17 11:55:43;;;;;;;3.45;2.08;;;;;;;13.09;35.85;102357.47;7395578;19;20010;-65